sensor_id;sensor_type;location;lat;lon;timestamp;pressure;altitude;pressure_sealevel;temperature
75431;BMP280;64127;51.488;5.462;2024-02-04T00:00:59;102221.81;;;12.74
75431;BMP280;64127;51.488;5.462;2024-02-04T00:03:31;102216.53;;;12.74
75431;BMP280;64127;51.488;5.462;2024-02-04T00:06:04;102215.66;;;12.74
75431;BMP280;64127;51.488;5.462;2024-02-04T00:08:36;102221.00;;;12.75
75431;BMP280;64127;51.488;5.462;2024-02-04T00:11:08;102218.31;;;12.74
75431;BMP280;64127;51.488;5.462;2024-02-04T00:13:43;102214.75;;;12.73
75431;BMP280;64127;51.488;5.462;2024-02-04T00:16:15;102206.78;;;12.71
75431;BMP280;64127;51.488;5.462;2024-02-04T00:18:47;102204.13;;;12.71
75431;BMP280;64127;51.488;5.462;2024-02-04T00:21:19;102214.59;;;12.70
75431;BMP280;64127;51.488;5.462;2024-02-04T00:23:52;102198.66;;;12.67
75431;BMP280;64127;51.488;5.462;2024-02-04T00:26:24;102216.38;;;12.71
75431;BMP280;64127;51.488;5.462;2024-02-04T00:28:55;102212.94;;;12.72
75431;BMP280;64127;51.488;5.462;2024-02-04T00:31:28;102213.84;;;12.73
75431;BMP280;64127;51.488;5.462;2024-02-04T00:34:00;102212.13;;;12.73
75431;BMP280;64127;51.488;5.462;2024-02-04T00:36:32;102210.41;;;12.74
75431;BMP280;64127;51.488;5.462;2024-02-04T00:39:04;102203.06;;;12.68
75431;BMP280;64127;51.488;5.462;2024-02-04T00:41:38;102208.59;;;12.73
75431;BMP280;64127;51.488;5.462;2024-02-04T00:44:10;102209.41;;;12.71
75431;BMP280;64127;51.488;5.462;2024-02-04T00:46:44;102216.66;;;12.76
75431;BMP280;64127;51.488;5.462;2024-02-04T00:49:16;102221.25;;;12.80
75431;BMP280;64127;51.488;5.462;2024-02-04T00:51:48;102222.06;;;12.79
75431;BMP280;64127;51.488;5.462;2024-02-04T00:54:20;102215.09;;;12.79
75431;BMP280;64127;51.488;5.462;2024-02-04T00:56:52;102226.53;;;12.80
75431;BMP280;64127;51.488;5.462;2024-02-04T00:59:24;102226.03;;;13.03
75431;BMP280;64127;51.488;5.462;2024-02-04T01:01:56;102230.41;;;12.86
75431;BMP280;64127;51.488;5.462;2024-02-04T01:04:29;102226.53;;;12.80
75431;BMP280;64127;51.488;5.462;2024-02-04T01:07:01;102230.28;;;12.85
75431;BMP280;64127;51.488;5.462;2024-02-04T01:09:33;102221.44;;;12.83
75431;BMP280;64127;51.488;5.462;2024-02-04T01:12:06;102220.63;;;12.84
75431;BMP280;64127;51.488;5.462;2024-02-04T01:14:38;102205.63;;;12.83
75431;BMP280;64127;51.488;5.462;2024-02-04T01:17:10;102205.97;;;12.89
75431;BMP280;64127;51.488;5.462;2024-02-04T01:19:42;102209.59;;;12.91
75431;BMP280;64127;51.488;5.462;2024-02-04T01:22:14;102216.66;;;12.92
75431;BMP280;64127;51.488;5.462;2024-02-04T01:24:46;102206.13;;;12.92
75431;BMP280;64127;51.488;5.462;2024-02-04T01:27:20;102212.22;;;12.91
75431;BMP280;64127;51.488;5.462;2024-02-04T01:29:52;102200.03;;;12.93
75431;BMP280;64127;51.488;5.462;2024-02-04T01:32:25;102204.34;;;12.91
75431;BMP280;64127;51.488;5.462;2024-02-04T01:34:57;102206.22;;;12.93
75431;BMP280;64127;51.488;5.462;2024-02-04T01:37:29;102197.41;;;12.93
75431;BMP280;64127;51.488;5.462;2024-02-04T01:40:01;102199.41;;;12.97
75431;BMP280;64127;51.488;5.462;2024-02-04T01:42:33;102195.75;;;12.95
75431;BMP280;64127;51.488;5.462;2024-02-04T01:45:06;102200.31;;;12.97
75431;BMP280;64127;51.488;5.462;2024-02-04T01:47:39;102200.16;;;12.94
75431;BMP280;64127;51.488;5.462;2024-02-04T01:50:11;102203.00;;;12.99
75431;BMP280;64127;51.488;5.462;2024-02-04T01:52:44;102207.44;;;13.00
75431;BMP280;64127;51.488;5.462;2024-02-04T01:55:17;102201.22;;;12.98
75431;BMP280;64127;51.488;5.462;2024-02-04T01:57:50;102213.53;;;12.99
75431;BMP280;64127;51.488;5.462;2024-02-04T02:00:23;102206.66;;;13.01
75431;BMP280;64127;51.488;5.462;2024-02-04T02:02:56;102207.44;;;13.00
75431;BMP280;64127;51.488;5.462;2024-02-04T02:05:29;102216.09;;;12.97
75431;BMP280;64127;51.488;5.462;2024-02-04T02:08:01;102217.00;;;12.98
75431;BMP280;64127;51.488;5.462;2024-02-04T02:10:33;102211.75;;;12.98
75431;BMP280;64127;51.488;5.462;2024-02-04T02:13:22;102216.66;;;12.92
75431;BMP280;64127;51.488;5.462;2024-02-04T02:16:07;102213.31;;;12.94
75431;BMP280;64127;51.488;5.462;2024-02-04T02:18:52;102214.19;;;12.95
75431;BMP280;64127;51.488;5.462;2024-02-04T02:24:45;102220.63;;;13.00
75431;BMP280;64127;51.488;5.462;2024-02-04T02:27:18;102202.84;;;12.96
75431;BMP280;64127;51.488;5.462;2024-02-04T02:29:51;102209.13;;;12.98
75431;BMP280;64127;51.488;5.462;2024-02-04T02:32:23;102206.47;;;12.98
75431;BMP280;64127;51.488;5.462;2024-02-04T02:34:56;102210.91;;;12.99
75431;BMP280;64127;51.488;5.462;2024-02-04T02:37:59;102207.03;;;12.92
75431;BMP280;64127;51.488;5.462;2024-02-04T02:40:52;102211.38;;;12.92
75431;BMP280;64127;51.488;5.462;2024-02-04T02:43:26;102194.47;;;12.87
75431;BMP280;64127;51.488;5.462;2024-02-04T02:46:00;102208.09;;;12.96
75431;BMP280;64127;51.488;5.462;2024-02-04T02:48:32;102210.69;;;12.94
75431;BMP280;64127;51.488;5.462;2024-02-04T02:51:05;102196.50;;;12.92
75431;BMP280;64127;51.488;5.462;2024-02-04T02:53:37;102168.47;;;12.77
75431;BMP280;64127;51.488;5.462;2024-02-04T02:56:09;102200.88;;;12.92
75431;BMP280;64127;51.488;5.462;2024-02-04T02:58:41;102194.63;;;12.90
75431;BMP280;64127;51.488;5.462;2024-02-04T03:01:13;102199.06;;;12.91
75431;BMP280;64127;51.488;5.462;2024-02-04T03:03:45;102198.97;;;12.89
75431;BMP280;64127;51.488;5.462;2024-02-04T03:06:17;102198.06;;;12.89
75431;BMP280;64127;51.488;5.462;2024-02-04T03:08:49;102202.41;;;12.88
75431;BMP280;64127;51.488;5.462;2024-02-04T03:11:21;102203.31;;;12.89
75431;BMP280;64127;51.488;5.462;2024-02-04T03:13:54;102202.34;;;12.87
75431;BMP280;64127;51.488;5.462;2024-02-04T03:16:26;102179.16;;;12.80
75431;BMP280;64127;51.488;5.462;2024-02-04T03:18:58;102188.13;;;12.83
75431;BMP280;64127;51.488;5.462;2024-02-04T03:21:30;102189.69;;;12.80
75431;BMP280;64127;51.488;5.462;2024-02-04T03:24:02;102206.44;;;12.82
75431;BMP280;64127;51.488;5.462;2024-02-04T03:26:34;102202.91;;;12.81
75431;BMP280;64127;51.488;5.462;2024-02-04T03:29:06;102196.78;;;12.81
75431;BMP280;64127;51.488;5.462;2024-02-04T03:31:38;102189.59;;;12.78
75431;BMP280;64127;51.488;5.462;2024-02-04T03:34:10;102181.53;;;12.75
75431;BMP280;64127;51.488;5.462;2024-02-04T03:36:42;102185.16;;;12.77
75431;BMP280;64127;51.488;5.462;2024-02-04T03:39:14;102190.59;;;12.80
75431;BMP280;64127;51.488;5.462;2024-02-04T03:41:46;102189.69;;;12.80
75431;BMP280;64127;51.488;5.462;2024-02-04T03:44:18;102183.41;;;12.78
75431;BMP280;64127;51.488;5.462;2024-02-04T03:46:51;102190.44;;;12.77
75431;BMP280;64127;51.488;5.462;2024-02-04T03:49:23;102180.78;;;12.78
75431;BMP280;64127;51.488;5.462;2024-02-04T03:51:55;102188.78;;;12.79
75431;BMP280;64127;51.488;5.462;2024-02-04T03:54:27;102189.75;;;12.81
75431;BMP280;64127;51.488;5.462;2024-02-04T03:56:59;102180.06;;;12.80
75431;BMP280;64127;51.488;5.462;2024-02-04T03:59:31;102191.50;;;12.81
75431;BMP280;64127;51.488;5.462;2024-02-04T04:02:03;102177.50;;;12.82
75431;BMP280;64127;51.488;5.462;2024-02-04T04:04:35;102169.63;;;12.82
75431;BMP280;64127;51.488;5.462;2024-02-04T04:07:07;102183.78;;;12.84
75431;BMP280;64127;51.488;5.462;2024-02-04T04:09:39;102188.94;;;12.82
75431;BMP280;64127;51.488;5.462;2024-02-04T04:12:12;102185.41;;;12.82
75431;BMP280;64127;51.488;5.462;2024-02-04T04:14:44;102173.91;;;12.80
75431;BMP280;64127;51.488;5.462;2024-02-04T04:17:16;102188.19;;;12.85
75431;BMP280;64127;51.488;5.462;2024-02-04T04:19:48;102186.41;;;12.84
75431;BMP280;64127;51.488;5.462;2024-02-04T04:22:20;102195.28;;;12.86
75431;BMP280;64127;51.488;5.462;2024-02-04T04:24:52;102192.00;;;12.90
75431;BMP280;64127;51.488;5.462;2024-02-04T04:27:24;102202.53;;;12.90
75431;BMP280;64127;51.488;5.462;2024-02-04T04:29:56;102186.56;;;12.87
75431;BMP280;64127;51.488;5.462;2024-02-04T04:32:28;102187.47;;;12.87
75431;BMP280;64127;51.488;5.462;2024-02-04T04:35:00;102179.66;;;12.89
75431;BMP280;64127;51.488;5.462;2024-02-04T04:37:32;102171.91;;;12.92
75431;BMP280;64127;51.488;5.462;2024-02-04T04:40:04;102171.75;;;12.89
75431;BMP280;64127;51.488;5.462;2024-02-04T04:42:37;102139.19;;;12.87
75431;BMP280;64127;51.488;5.462;2024-02-04T04:45:10;102131.38;;;12.88
75431;BMP280;64127;51.488;5.462;2024-02-04T04:47:42;102133.34;;;12.92
75431;BMP280;64127;51.488;5.462;2024-02-04T04:50:15;102136.97;;;12.94
75431;BMP280;64127;51.488;5.462;2024-02-04T04:52:47;102129.91;;;12.93
75431;BMP280;64127;51.488;5.462;2024-02-04T04:55:19;102126.34;;;12.93
75431;BMP280;64127;51.488;5.462;2024-02-04T04:57:51;102129.91;;;12.93
75431;BMP280;64127;51.488;5.462;2024-02-04T05:00:24;102137.69;;;12.92
75431;BMP280;64127;51.488;5.462;2024-02-04T05:02:56;102141.34;;;12.94
75431;BMP280;64127;51.488;5.462;2024-02-04T05:05:28;102144.63;;;12.90
75431;BMP280;64127;51.488;5.462;2024-02-04T05:08:00;102149.22;;;12.94
75431;BMP280;64127;51.488;5.462;2024-02-04T05:10:32;102143.13;;;12.95
75431;BMP280;64127;51.488;5.462;2024-02-04T05:13:04;102136.13;;;12.95
75431;BMP280;64127;51.488;5.462;2024-02-04T05:15:36;102131.63;;;12.93
75431;BMP280;64127;51.488;5.462;2024-02-04T05:18:08;102136.97;;;12.94
75431;BMP280;64127;51.488;5.462;2024-02-04T05:20:40;102143.13;;;12.95
75431;BMP280;64127;51.488;5.462;2024-02-04T05:23:12;102140.44;;;12.93
75431;BMP280;64127;51.488;5.462;2024-02-04T05:25:44;102139.66;;;12.96
75431;BMP280;64127;51.488;5.462;2024-02-04T05:28:16;102122.06;;;12.95
75431;BMP280;64127;51.488;5.462;2024-02-04T05:30:48;102125.53;;;12.94
75431;BMP280;64127;51.488;5.462;2024-02-04T05:33:20;102131.53;;;12.91
75431;BMP280;64127;51.488;5.462;2024-02-04T05:35:52;102142.00;;;12.90
75431;BMP280;64127;51.488;5.462;2024-02-04T05:38:24;102136.63;;;12.88
75431;BMP280;64127;51.488;5.462;2024-02-04T05:40:56;102132.28;;;12.89
75431;BMP280;64127;51.488;5.462;2024-02-04T05:43:28;102119.06;;;12.87
75431;BMP280;64127;51.488;5.462;2024-02-04T05:46:00;102121.59;;;12.86
75431;BMP280;64127;51.488;5.462;2024-02-04T05:48:32;102132.13;;;12.86
75431;BMP280;64127;51.488;5.462;2024-02-04T05:51:05;102123.31;;;12.85
75431;BMP280;64127;51.488;5.462;2024-02-04T05:53:37;102121.59;;;12.86
75431;BMP280;64127;51.488;5.462;2024-02-04T05:56:09;102116.97;;;12.82
75431;BMP280;64127;51.488;5.462;2024-02-04T05:58:41;102133.19;;;12.89
75431;BMP280;64127;51.488;5.462;2024-02-04T06:01:13;102134.16;;;12.91
75431;BMP280;64127;51.488;5.462;2024-02-04T06:03:46;102126.09;;;12.88
75431;BMP280;64127;51.488;5.462;2024-02-04T06:06:18;102124.22;;;12.86
75431;BMP280;64127;51.488;5.462;2024-02-04T06:08:52;102114.44;;;12.83
75431;BMP280;64127;51.488;5.462;2024-02-04T06:11:24;102113.78;;;12.87
75431;BMP280;64127;51.488;5.462;2024-02-04T06:13:56;102118.00;;;12.84
75431;BMP280;64127;51.488;5.462;2024-02-04T06:16:28;102119.78;;;12.85
75431;BMP280;64127;51.488;5.462;2024-02-04T06:19:00;102114.59;;;12.86
75431;BMP280;64127;51.488;5.462;2024-02-04T06:21:32;102113.78;;;12.87
75431;BMP280;64127;51.488;5.462;2024-02-04T06:24:04;102108.69;;;12.90
75431;BMP280;64127;51.488;5.462;2024-02-04T06:26:38;102105.97;;;12.89
75431;BMP280;64127;51.488;5.462;2024-02-04T06:29:11;102109.59;;;12.91
75431;BMP280;64127;51.488;5.462;2024-02-04T06:31:46;102103.47;;;12.92
75431;BMP280;64127;51.488;5.462;2024-02-04T06:34:18;102109.59;;;12.91
75431;BMP280;64127;51.488;5.462;2024-02-04T06:36:51;102090.16;;;12.89
75431;BMP280;64127;51.488;5.462;2024-02-04T06:39:23;102104.34;;;12.91
75431;BMP280;64127;51.488;5.462;2024-02-04T06:41:55;102099.88;;;12.90
75431;BMP280;64127;51.488;5.462;2024-02-04T06:44:27;102097.16;;;12.88
75431;BMP280;64127;51.488;5.462;2024-02-04T06:46:59;102091.81;;;12.87
75431;BMP280;64127;51.488;5.462;2024-02-04T06:49:31;102093.47;;;12.85
75431;BMP280;64127;51.488;5.462;2024-02-04T06:52:03;102090.91;;;12.86
75431;BMP280;64127;51.488;5.462;2024-02-04T06:54:36;102102.34;;;12.87
75431;BMP280;64127;51.488;5.462;2024-02-04T06:57:09;102091.81;;;12.87
75431;BMP280;64127;51.488;5.462;2024-02-04T06:59:41;102090.91;;;12.86
75431;BMP280;64127;51.488;5.462;2024-02-04T07:02:13;102090.00;;;12.86
75431;BMP280;64127;51.488;5.462;2024-02-04T07:04:45;102100.53;;;12.86
75431;BMP280;64127;51.488;5.462;2024-02-04T07:07:17;102109.25;;;12.85
75431;BMP280;64127;51.488;5.462;2024-02-04T07:09:49;102108.38;;;12.84
75431;BMP280;64127;51.488;5.462;2024-02-04T07:12:21;102102.19;;;12.84
75431;BMP280;64127;51.488;5.462;2024-02-04T07:14:54;102108.19;;;12.81
75431;BMP280;64127;51.488;5.462;2024-02-04T07:17:26;102110.75;;;12.80
75431;BMP280;64127;51.488;5.462;2024-02-04T07:19:58;102109.03;;;12.80
75431;BMP280;64127;51.488;5.462;2024-02-04T07:22:31;102107.31;;;12.81
75431;BMP280;64127;51.488;5.462;2024-02-04T07:25:07;102109.47;;;13.05
75431;BMP280;64127;51.488;5.462;2024-02-04T07:27:39;102106.78;;;12.88
75431;BMP280;64127;51.488;5.462;2024-02-04T07:30:12;102112.72;;;12.84
75431;BMP280;64127;51.488;5.462;2024-02-04T07:32:44;102097.84;;;12.84
75431;BMP280;64127;51.488;5.462;2024-02-04T07:35:16;102111.00;;;12.84
75431;BMP280;64127;51.488;5.462;2024-02-04T07:37:48;102097.91;;;12.86
75431;BMP280;64127;51.488;5.462;2024-02-04T07:40:20;102083.69;;;12.82
75431;BMP280;64127;51.488;5.462;2024-02-04T07:42:52;102097.91;;;12.86
75431;BMP280;64127;51.488;5.462;2024-02-04T07:45:24;102098.00;;;12.87
75431;BMP280;64127;51.488;5.462;2024-02-04T07:47:56;102095.28;;;12.86
75431;BMP280;64127;51.488;5.462;2024-02-04T07:50:29;102096.25;;;12.88
75431;BMP280;64127;51.488;5.462;2024-02-04T07:53:01;102103.31;;;12.89
75431;BMP280;64127;51.488;5.462;2024-02-04T07:55:33;102107.78;;;12.90
75431;BMP280;64127;51.488;5.462;2024-02-04T07:58:05;102112.13;;;12.89
75431;BMP280;64127;51.488;5.462;2024-02-04T08:00:37;102098.88;;;12.88
75431;BMP280;64127;51.488;5.462;2024-02-04T08:03:09;102100.69;;;12.89
75431;BMP280;64127;51.488;5.462;2024-02-04T08:05:41;102106.88;;;12.89
75431;BMP280;64127;51.488;5.462;2024-02-04T08:08:13;102087.53;;;12.89
75431;BMP280;64127;51.488;5.462;2024-02-04T08:10:45;102090.16;;;12.89
75431;BMP280;64127;51.488;5.462;2024-02-04T08:13:17;102098.88;;;12.88
75431;BMP280;64127;51.488;5.462;2024-02-04T08:15:49;102095.44;;;12.89
75431;BMP280;64127;51.488;5.462;2024-02-04T08:18:21;102091.81;;;12.87
75431;BMP280;64127;51.488;5.462;2024-02-04T08:20:54;102078.66;;;12.87
75431;BMP280;64127;51.488;5.462;2024-02-04T08:23:26;102068.91;;;12.84
75431;BMP280;64127;51.488;5.462;2024-02-04T08:25:57;102064.59;;;12.86
75431;BMP280;64127;51.488;5.462;2024-02-04T08:28:30;102062.03;;;12.88
75431;BMP280;64127;51.488;5.462;2024-02-04T08:31:02;102062.88;;;12.87
75431;BMP280;64127;51.488;5.462;2024-02-04T08:33:34;102064.66;;;12.88
75431;BMP280;64127;51.488;5.462;2024-02-04T08:36:06;102077.00;;;12.89
75431;BMP280;64127;51.488;5.462;2024-02-04T08:38:41;102076.34;;;12.93
75431;BMP280;64127;51.488;5.462;2024-02-04T08:41:13;102078.16;;;12.94
75431;BMP280;64127;51.488;5.462;2024-02-04T08:43:45;102084.25;;;12.93
75431;BMP280;64127;51.488;5.462;2024-02-04T08:46:18;102093.06;;;12.93
75431;BMP280;64127;51.488;5.462;2024-02-04T08:48:50;102093.97;;;12.94
75431;BMP280;64127;51.488;5.462;2024-02-04T08:51:22;102097.41;;;12.93
75431;BMP280;64127;51.488;5.462;2024-02-04T08:53:54;102098.38;;;12.95
75431;BMP280;64127;51.488;5.462;2024-02-04T08:56:26;102093.88;;;12.92
75431;BMP280;64127;51.488;5.462;2024-02-04T08:59:01;102104.66;;;12.97
75431;BMP280;64127;51.488;5.462;2024-02-04T09:01:34;102102.75;;;12.94
75431;BMP280;64127;51.488;5.462;2024-02-04T09:04:06;102117.81;;;12.97
75431;BMP280;64127;51.488;5.462;2024-02-04T09:06:38;102115.22;;;12.98
75431;BMP280;64127;51.488;5.462;2024-02-04T09:09:10;102116.25;;;13.00
75431;BMP280;64127;51.488;5.462;2024-02-04T09:11:42;102117.31;;;13.04
75431;BMP280;64127;51.488;5.462;2024-02-04T09:14:14;102122.56;;;13.04
75431;BMP280;64127;51.488;5.462;2024-02-04T09:16:46;102112.03;;;13.04
75431;BMP280;64127;51.488;5.462;2024-02-04T09:19:18;102121.72;;;13.05
75431;BMP280;64127;51.488;5.462;2024-02-04T09:21:51;102106.94;;;13.07
75431;BMP280;64127;51.488;5.462;2024-02-04T09:24:23;102097.97;;;13.03
75431;BMP280;64127;51.488;5.462;2024-02-04T09:26:55;102101.84;;;13.10
75431;BMP280;64127;51.488;5.462;2024-02-04T09:29:27;102101.94;;;13.11
75431;BMP280;64127;51.488;5.462;2024-02-04T09:31:59;102100.13;;;13.10
75431;BMP280;64127;51.488;5.462;2024-02-04T09:34:32;102102.00;;;13.13
75431;BMP280;64127;51.488;5.462;2024-02-04T09:37:04;102090.56;;;13.12
75431;BMP280;64127;51.488;5.462;2024-02-04T09:39:36;102099.53;;;13.16
75431;BMP280;64127;51.488;5.462;2024-02-04T09:42:10;102100.44;;;13.16
75431;BMP280;64127;51.488;5.462;2024-02-04T09:44:42;102103.97;;;13.17
75431;BMP280;64127;51.488;5.462;2024-02-04T09:47:15;102098.72;;;13.17
75431;BMP280;64127;51.488;5.462;2024-02-04T09:49:47;102089.09;;;13.17
75431;BMP280;64127;51.488;5.462;2024-02-04T09:52:27;102088.19;;;13.17
75431;BMP280;64127;51.488;5.462;2024-02-04T09:55:02;102073.63;;;13.07
75431;BMP280;64127;51.488;5.462;2024-02-04T09:57:38;102082.91;;;13.17
75431;BMP280;64127;51.488;5.462;2024-02-04T10:00:11;102083.56;;;13.13
75431;BMP280;64127;51.488;5.462;2024-02-04T10:02:45;102081.75;;;13.12
75431;BMP280;64127;51.488;5.462;2024-02-04T10:05:17;102079.69;;;13.06
75431;BMP280;64127;51.488;5.462;2024-02-04T10:07:50;102086.78;;;13.07
75431;BMP280;64127;51.488;5.462;2024-02-04T10:10:22;102090.22;;;13.06
75431;BMP280;64127;51.488;5.462;2024-02-04T10:12:54;102100.94;;;13.09
75431;BMP280;64127;51.488;5.462;2024-02-04T10:15:31;102108.56;;;13.05
75431;BMP280;64127;51.488;5.462;2024-02-04T10:18:07;102104.97;;;13.03
75431;BMP280;64127;51.488;5.462;2024-02-04T10:20:40;102094.44;;;13.03
75431;BMP280;64127;51.488;5.462;2024-02-04T10:23:12;102098.78;;;13.02
75431;BMP280;64127;51.488;5.462;2024-02-04T10:25:44;102101.41;;;13.02
75431;BMP280;64127;51.488;5.462;2024-02-04T10:28:16;102101.34;;;13.01
75431;BMP280;64127;51.488;5.462;2024-02-04T10:30:49;102099.84;;;13.06
75431;BMP280;64127;51.488;5.462;2024-02-04T10:33:21;102092.94;;;13.08
75431;BMP280;64127;51.488;5.462;2024-02-04T10:35:53;102096.25;;;13.04
75431;BMP280;64127;51.488;5.462;2024-02-04T10:38:25;102092.75;;;13.05
75431;BMP280;64127;51.488;5.462;2024-02-04T10:41:01;102088.41;;;13.05
75431;BMP280;64127;51.488;5.462;2024-02-04T10:43:35;102099.84;;;13.06
75431;BMP280;64127;51.488;5.462;2024-02-04T10:46:18;102104.97;;;13.03
75431;BMP280;64127;51.488;5.462;2024-02-04T10:49:00;102101.34;;;13.01
75431;BMP280;64127;51.488;5.462;2024-02-04T10:51:36;102110.38;;;13.06
75431;BMP280;64127;51.488;5.462;2024-02-04T10:54:14;102113.19;;;13.09
75431;BMP280;64127;51.488;5.462;2024-02-04T10:57:00;102095.50;;;13.06
75431;BMP280;64127;51.488;5.462;2024-02-04T10:59:35;102090.31;;;13.08
75431;BMP280;64127;51.488;5.462;2024-02-04T11:02:07;102091.19;;;13.08
75431;BMP280;64127;51.488;5.462;2024-02-04T11:04:42;102056.25;;;12.95
75431;BMP280;64127;51.488;5.462;2024-02-04T11:07:15;102090.66;;;13.14
75431;BMP280;64127;51.488;5.462;2024-02-04T11:09:49;102077.34;;;13.11
75431;BMP280;64127;51.488;5.462;2024-02-04T11:12:24;102072.56;;;13.04
75431;BMP280;64127;51.488;5.462;2024-02-04T11:15:01;102092.13;;;13.09
75431;BMP280;64127;51.488;5.462;2024-02-04T11:24:06;102071.53;;;13.02
75431;BMP280;64127;51.488;5.462;2024-02-04T11:26:41;102069.91;;;13.04
75431;BMP280;64127;51.488;5.462;2024-02-04T11:29:14;102061.94;;;13.02
75431;BMP280;64127;51.488;5.462;2024-02-04T11:31:46;102064.50;;;13.01
75431;BMP280;64127;51.488;5.462;2024-02-04T11:34:18;102072.47;;;13.02
75431;BMP280;64127;51.488;5.462;2024-02-04T11:36:51;102065.38;;;13.01
75431;BMP280;64127;51.488;5.462;2024-02-04T11:39:23;102070.63;;;13.01
75431;BMP280;64127;51.488;5.462;2024-02-04T11:41:57;102068.09;;;13.03
75431;BMP280;64127;51.488;5.462;2024-02-04T11:44:29;102067.28;;;13.04
75431;BMP280;64127;51.488;5.462;2024-02-04T11:47:01;102061.16;;;13.05
75431;BMP280;64127;51.488;5.462;2024-02-04T11:49:33;102048.84;;;13.04
75431;BMP280;64127;51.488;5.462;2024-02-04T11:52:06;102054.13;;;13.04
75431;BMP280;64127;51.488;5.462;2024-02-04T11:54:38;102052.41;;;13.04
75431;BMP280;64127;51.488;5.462;2024-02-04T11:57:10;102052.47;;;13.06
75431;BMP280;64127;51.488;5.462;2024-02-04T11:59:43;102057.09;;;13.10
75431;BMP280;64127;51.488;5.462;2024-02-04T12:02:17;102042.28;;;13.12
75431;BMP280;64127;51.488;5.462;2024-02-04T12:04:49;102038.81;;;13.13
75431;BMP280;64127;51.488;5.462;2024-02-04T12:07:23;102043.41;;;13.17
75431;BMP280;64127;51.488;5.462;2024-02-04T12:09:55;102038.22;;;13.18
75431;BMP280;64127;51.488;5.462;2024-02-04T12:12:29;102032.22;;;13.21
75431;BMP280;64127;51.488;5.462;2024-02-04T12:15:04;102043.72;;;13.23
75431;BMP280;64127;51.488;5.462;2024-02-04T12:17:36;102027.78;;;13.20
75431;BMP280;64127;51.488;5.462;2024-02-04T12:20:09;102034.84;;;13.21
75431;BMP280;64127;51.488;5.462;2024-02-04T12:22:42;102019.88;;;13.20
75431;BMP280;64127;51.488;5.462;2024-02-04T12:25:16;102031.31;;;13.20
75431;BMP280;64127;51.488;5.462;2024-02-04T12:27:51;102037.53;;;13.23
75431;BMP280;64127;51.488;5.462;2024-02-04T12:30:23;102027.09;;;13.24
75431;BMP280;64127;51.488;5.462;2024-02-04T12:33:01;102021.69;;;13.21
75431;BMP280;64127;51.488;5.462;2024-02-04T12:35:33;102032.59;;;13.29
75431;BMP280;64127;51.488;5.462;2024-02-04T12:38:05;102028.22;;;13.29
75431;BMP280;64127;51.488;5.462;2024-02-04T12:40:39;102016.88;;;13.30
75431;BMP280;64127;51.488;5.462;2024-02-04T12:43:11;102012.50;;;13.31
75431;BMP280;64127;51.488;5.462;2024-02-04T12:45:44;102017.91;;;13.34
75431;BMP280;64127;51.488;5.462;2024-02-04T12:48:16;102013.56;;;13.34
75431;BMP280;64127;51.488;5.462;2024-02-04T12:50:50;101995.94;;;13.33
75431;BMP280;64127;51.488;5.462;2024-02-04T12:53:22;101991.69;;;13.35
75431;BMP280;64127;51.488;5.462;2024-02-04T12:55:58;101988.34;;;13.39
75431;BMP280;64127;51.488;5.462;2024-02-04T12:58:42;101994.66;;;13.43
75431;BMP280;64127;51.488;5.462;2024-02-04T13:01:15;101996.69;;;13.48
75431;BMP280;64127;51.488;5.462;2024-02-04T13:03:47;101995.94;;;13.51
75431;BMP280;64127;51.488;5.462;2024-02-04T13:06:22;101989.22;;;13.57
75431;BMP280;64127;51.488;5.462;2024-02-04T13:08:55;101976.19;;;13.60
75431;BMP280;64127;51.488;5.462;2024-02-04T13:11:30;101987.94;;;13.67
75431;BMP280;64127;51.488;5.462;2024-02-04T13:14:02;101982.66;;;13.67
75431;BMP280;64127;51.488;5.462;2024-02-04T13:16:34;101996.16;;;13.73
75431;BMP280;64127;51.488;5.462;2024-02-04T13:19:07;101987.63;;;13.79
75431;BMP280;64127;51.488;5.462;2024-02-04T13:21:40;101983.38;;;13.82
75431;BMP280;64127;51.488;5.462;2024-02-04T13:24:12;101972.97;;;13.85
75431;BMP280;64127;51.488;5.462;2024-02-04T13:26:44;101984.44;;;13.86
75431;BMP280;64127;51.488;5.462;2024-02-04T13:29:16;101980.06;;;13.86
75431;BMP280;64127;51.488;5.462;2024-02-04T13:31:48;101984.66;;;13.90
75431;BMP280;64127;51.488;5.462;2024-02-04T13:34:20;101983.06;;;13.94
75431;BMP280;64127;51.488;5.462;2024-02-04T13:36:53;101983.22;;;13.97
75431;BMP280;64127;51.488;5.462;2024-02-04T13:39:25;101976.38;;;14.02
75431;BMP280;64127;51.488;5.462;2024-02-04T13:41:57;101961.41;;;14.01
75431;BMP280;64127;51.488;5.462;2024-02-04T13:44:29;101948.22;;;14.01
75431;BMP280;64127;51.488;5.462;2024-02-04T13:47:01;101964.19;;;14.04
75431;BMP280;64127;51.488;5.462;2024-02-04T13:49:33;101962.53;;;14.06
75431;BMP280;64127;51.488;5.462;2024-02-04T13:52:05;101964.34;;;14.07
75431;BMP280;64127;51.488;5.462;2024-02-04T13:54:37;101960.84;;;14.08
75431;BMP280;64127;51.488;5.462;2024-02-04T13:57:09;101959.06;;;14.07
75431;BMP280;64127;51.488;5.462;2024-02-04T13:59:41;101970.56;;;14.09
75431;BMP280;64127;51.488;5.462;2024-02-04T14:02:13;101975.97;;;14.12
75431;BMP280;64127;51.488;5.462;2024-02-04T14:04:45;101967.09;;;14.10
75431;BMP280;64127;51.488;5.462;2024-02-04T14:07:18;101969.94;;;14.14
75431;BMP280;64127;51.488;5.462;2024-02-04T14:09:51;101954.09;;;14.14
75431;BMP280;64127;51.488;5.462;2024-02-04T14:12:23;101940.78;;;14.11
75431;BMP280;64127;51.488;5.462;2024-02-04T14:14:55;101947.09;;;14.15
75431;BMP280;64127;51.488;5.462;2024-02-04T14:17:27;101940.91;;;14.14
75431;BMP280;64127;51.488;5.462;2024-02-04T14:19:59;101957.66;;;14.15
75431;BMP280;64127;51.488;5.462;2024-02-04T14:22:33;101963.69;;;14.12
75431;BMP280;64127;51.488;5.462;2024-02-04T14:25:05;101946.19;;;14.14
75431;BMP280;64127;51.488;5.462;2024-02-04T14:27:39;101950.59;;;14.14
75431;BMP280;64127;51.488;5.462;2024-02-04T14:30:12;101951.47;;;14.14
75431;BMP280;64127;51.488;5.462;2024-02-04T14:32:44;101937.47;;;14.15
75431;BMP280;64127;51.488;5.462;2024-02-04T14:35:16;101923.38;;;14.15
75431;BMP280;64127;51.488;5.462;2024-02-04T14:37:48;101917.19;;;14.14